createdAt,value
2022-11-28T00:00:41.194Z,7.32
2022-11-28T00:01:40.839Z,7.35
2022-11-28T00:02:40.905Z,7.34
2022-11-28T00:03:40.792Z,7.35
2022-11-28T00:04:41.128Z,7.37
2022-11-28T00:05:46.769Z,7.35
2022-11-28T00:06:40.766Z,7.34
2022-11-28T00:07:41.095Z,7.32
2022-11-28T00:08:40.765Z,7.34
2022-11-28T00:09:40.775Z,7.37
2022-11-28T00:10:40.756Z,7.38
2022-11-28T00:11:40.704Z,7.35
2022-11-28T00:12:40.686Z,7.38
2022-11-28T00:13:40.665Z,7.40
2022-11-28T00:14:41.308Z,7.42
2022-11-28T00:15:40.683Z,7.42
2022-11-28T00:16:40.841Z,7.41
2022-11-28T00:17:40.626Z,7.42
2022-11-28T00:18:40.611Z,7.42
2022-11-28T00:19:40.628Z,7.47
2022-11-28T00:20:40.587Z,7.45
2022-11-28T00:21:40.850Z,7.47
2022-11-28T00:22:40.605Z,7.47
2022-11-28T00:23:40.565Z,7.49
2022-11-28T00:24:41.013Z,7.49
2022-11-28T00:25:40.555Z,7.47
2022-11-28T00:26:40.584Z,7.47
2022-11-28T00:27:40.509Z,7.47
2022-11-28T00:28:40.809Z,7.47
2022-11-28T00:29:40.533Z,7.47
2022-11-28T00:30:40.482Z,7.45
2022-11-28T00:31:40.568Z,7.45
2022-11-28T00:32:40.459Z,7.44
2022-11-28T00:33:40.444Z,7.42
2022-11-28T00:34:40.798Z,7.44
2022-11-28T00:35:40.717Z,7.44
2022-11-28T00:36:40.422Z,7.45
2022-11-28T00:37:40.405Z,7.47
2022-11-28T00:38:40.427Z,7.45
2022-11-28T00:39:40.396Z,7.47
2022-11-28T00:40:40.395Z,7.47
2022-11-28T00:41:40.366Z,7.50
2022-11-28T00:42:40.635Z,7.49
2022-11-28T00:43:40.340Z,7.47
2022-11-28T00:44:40.722Z,7.49
2022-11-28T00:45:40.374Z,7.53
2022-11-28T00:46:40.361Z,7.56
2022-11-28T00:47:40.292Z,7.55
2022-11-28T00:48:40.291Z,7.56
2022-11-28T00:49:40.563Z,7.56
2022-11-28T00:50:40.289Z,7.53
2022-11-28T00:51:40.257Z,7.52
2022-11-28T00:52:40.314Z,7.52
2022-11-28T00:53:40.265Z,7.55
2022-11-28T00:54:40.590Z,7.55
2022-11-28T00:55:40.242Z,7.55
2022-11-28T00:56:40.527Z,7.55
2022-11-28T00:57:40.203Z,7.55
2022-11-28T00:58:40.216Z,7.56
2022-11-28T00:59:40.197Z,7.55
2022-11-28T01:00:40.225Z,7.56
2022-11-28T01:01:40.323Z,7.56
2022-11-28T01:02:40.210Z,7.58
2022-11-28T01:03:40.415Z,7.63
2022-11-28T01:04:40.581Z,7.60
2022-11-28T01:05:40.118Z,7.63
2022-11-28T01:06:40.106Z,7.62
2022-11-28T01:07:40.136Z,7.60
2022-11-28T01:08:40.066Z,7.62
2022-11-28T01:09:40.056Z,7.59
2022-11-28T01:10:40.387Z,7.58
2022-11-28T01:11:40.058Z,7.58
2022-11-28T01:12:40.026Z,7.56
2022-11-28T01:13:40.025Z,7.56
2022-11-28T01:14:40.226Z,7.58
2022-11-28T01:15:39.999Z,7.56
2022-11-28T01:16:40.094Z,7.56
2022-11-28T01:17:40.264Z,7.56
2022-11-28T01:18:39.976Z,7.56
2022-11-28T01:19:39.982Z,7.56
2022-11-28T01:20:39.944Z,7.55
2022-11-28T01:21:39.956Z,7.55
2022-11-28T01:22:40.024Z,7.55
2022-11-28T01:23:39.924Z,7.53
2022-11-28T01:24:40.617Z,7.59
2022-11-28T01:25:39.914Z,7.60
2022-11-28T01:26:39.902Z,7.62
2022-11-28T01:27:39.884Z,7.63
2022-11-28T01:28:39.913Z,7.63
2022-11-28T01:29:39.853Z,7.62
2022-11-28T01:30:39.858Z,7.60
2022-11-28T01:31:40.175Z,7.60
2022-11-28T01:32:39.827Z,7.62
2022-11-28T01:33:39.814Z,7.62
2022-11-28T01:34:40.120Z,7.62
2022-11-28T01:35:39.818Z,7.60
2022-11-28T01:36:39.811Z,7.63
2022-11-28T01:37:39.766Z,7.62
2022-11-28T01:38:40.036Z,7.60
2022-11-28T01:39:39.763Z,7.62
2022-11-28T01:40:39.794Z,7.59
2022-11-28T01:41:39.781Z,7.56
2022-11-28T01:42:39.743Z,7.56
2022-11-28T01:43:39.711Z,7.55
2022-11-28T01:44:40.045Z,7.53
2022-11-28T01:45:39.983Z,7.53
2022-11-28T01:46:39.780Z,7.53
2022-11-28T01:47:39.738Z,7.52
2022-11-28T01:48:39.654Z,7.49
2022-11-28T01:49:39.695Z,7.49
2022-11-28T01:50:39.670Z,7.49
2022-11-28T01:51:39.639Z,7.49
2022-11-28T01:52:39.916Z,7.47
2022-11-28T01:53:39.609Z,7.49
2022-11-28T01:54:39.737Z,7.45
2022-11-28T01:55:39.580Z,7.45
2022-11-28T01:56:39.588Z,7.44
2022-11-28T01:57:39.553Z,7.47
2022-11-28T01:58:39.603Z,7.44
2022-11-28T01:59:39.881Z,7.44
2022-11-28T02:00:39.645Z,7.45
2022-11-28T02:01:39.591Z,7.44
2022-11-28T02:02:39.519Z,7.42
2022-11-28T02:03:39.483Z,7.44
2022-11-28T02:04:39.622Z,7.42
2022-11-28T02:05:39.490Z,7.41
2022-11-28T02:06:39.746Z,7.40
2022-11-28T02:07:39.531Z,7.40
2022-11-28T02:08:39.446Z,7.40
2022-11-28T02:09:39.428Z,7.35
2022-11-28T02:10:39.475Z,7.37
2022-11-28T02:11:39.431Z,7.32
2022-11-28T02:12:39.410Z,7.31
2022-11-28T02:13:39.676Z,7.27
2022-11-28T02:14:39.508Z,7.24
2022-11-28T02:15:39.379Z,7.24
2022-11-28T02:16:39.487Z,7.23
2022-11-28T02:17:39.357Z,7.19
2022-11-28T02:18:39.389Z,7.20
2022-11-28T02:19:39.326Z,7.19
2022-11-28T02:20:39.628Z,7.15
2022-11-28T02:21:39.309Z,7.13
2022-11-28T02:22:39.359Z,7.13
2022-11-28T02:23:39.297Z,7.12
2022-11-28T02:24:39.659Z,7.09
2022-11-28T02:25:39.272Z,7.09
2022-11-28T02:26:39.258Z,7.08
2022-11-28T02:27:39.528Z,7.07
2022-11-28T02:28:39.293Z,7.04
2022-11-28T02:29:39.223Z,7.04
2022-11-28T02:30:39.218Z,7.05
2022-11-28T02:31:39.298Z,7.04
2022-11-28T02:32:39.205Z,7.05
2022-11-28T02:33:39.181Z,7.04
2022-11-28T02:34:43.109Z,7.02
2022-11-28T02:35:39.166Z,7.02
2022-11-28T02:36:39.169Z,7.01
2022-11-28T02:37:39.137Z,6.99
2022-11-28T02:38:39.138Z,6.97
2022-11-28T02:39:39.133Z,6.98
2022-11-28T02:40:39.149Z,6.94
2022-11-28T02:41:39.386Z,6.94
2022-11-28T02:42:39.109Z,6.95
2022-11-28T02:43:39.077Z,6.97
2022-11-28T02:44:39.089Z,6.98
2022-11-28T02:45:39.046Z,6.97
2022-11-28T02:46:39.151Z,6.95
2022-11-28T02:47:39.046Z,6.94
2022-11-28T02:48:39.317Z,6.94
2022-11-28T02:49:39.009Z,6.90
2022-11-28T02:50:39.021Z,6.89
2022-11-28T02:51:39.013Z,6.94
2022-11-28T02:52:39.023Z,6.94
2022-11-28T02:53:38.990Z,6.95
2022-11-28T02:54:38.966Z,6.91
2022-11-28T02:55:39.231Z,6.91
2022-11-28T02:56:38.972Z,6.91
2022-11-28T02:57:38.942Z,6.91
2022-11-28T02:58:38.969Z,6.91
2022-11-28T02:59:38.900Z,6.90
2022-11-28T03:00:38.944Z,6.89
2022-11-28T03:01:38.942Z,6.89
2022-11-28T03:02:39.219Z,6.87
2022-11-28T03:03:38.872Z,6.86
2022-11-28T03:04:38.884Z,6.87
2022-11-28T03:05:38.863Z,6.87
2022-11-28T03:06:38.831Z,6.87
2022-11-28T03:07:38.830Z,6.86
2022-11-28T03:08:38.824Z,6.86
2022-11-28T03:09:39.089Z,6.87
2022-11-28T03:10:38.832Z,6.87
2022-11-28T03:11:38.792Z,6.89
2022-11-28T03:12:38.788Z,6.87
2022-11-28T03:13:38.769Z,6.90
2022-11-28T03:14:38.752Z,6.91
2022-11-28T03:15:38.740Z,6.94
2022-11-28T03:16:39.234Z,6.95
2022-11-28T03:17:38.724Z,6.95
2022-11-28T03:18:38.703Z,6.98
2022-11-28T03:19:38.710Z,6.98
2022-11-28T03:20:38.703Z,7.01
2022-11-28T03:21:38.691Z,6.99
2022-11-28T03:22:38.694Z,7.02
2022-11-28T03:23:38.956Z,7.04
2022-11-28T03:24:38.795Z,7.02
2022-11-28T03:25:38.637Z,7.04
2022-11-28T03:26:38.625Z,7.02
2022-11-28T03:27:38.623Z,7.04
2022-11-28T03:28:43.360Z,7.04
2022-11-28T03:29:38.606Z,7.04
2022-11-28T03:30:38.901Z,7.04
2022-11-28T03:31:38.660Z,7.04
2022-11-28T03:32:38.583Z,7.04
2022-11-28T03:33:38.546Z,7.04
2022-11-28T03:34:38.567Z,7.05
2022-11-28T03:35:38.547Z,7.07
2022-11-28T03:36:38.536Z,7.05
2022-11-28T03:37:38.837Z,7.05
2022-11-28T03:38:38.499Z,7.05
2022-11-28T03:39:38.495Z,7.05
2022-11-28T03:40:38.537Z,7.04
2022-11-28T03:41:38.470Z,7.04
2022-11-28T03:42:38.457Z,7.02
2022-11-28T03:43:38.434Z,7.04
2022-11-28T03:44:38.732Z,7.04
2022-11-28T03:45:38.434Z,7.04
2022-11-28T03:46:38.488Z,7.05
2022-11-28T03:47:38.403Z,7.07
2022-11-28T03:48:38.417Z,7.05
2022-11-28T03:49:38.383Z,7.02
2022-11-28T03:50:38.395Z,7.05
2022-11-28T03:51:38.654Z,7.05
2022-11-28T03:52:38.406Z,7.05
2022-11-28T03:53:38.354Z,7.05
2022-11-28T03:54:38.345Z,7.05
2022-11-28T03:55:38.384Z,7.04
2022-11-28T03:56:38.313Z,7.05
2022-11-28T03:57:38.325Z,7.05
2022-11-28T03:58:38.616Z,7.05
2022-11-28T03:59:38.282Z,6.99
2022-11-28T04:00:38.317Z,7.01
2022-11-28T04:01:38.350Z,6.99
2022-11-28T04:02:38.304Z,6.95
2022-11-28T04:03:38.274Z,6.94
2022-11-28T04:04:38.792Z,6.91
2022-11-28T04:05:38.504Z,6.90
2022-11-28T04:06:38.210Z,6.89
2022-11-28T04:07:38.242Z,6.89
2022-11-28T04:08:38.213Z,6.87
2022-11-28T04:09:38.185Z,6.86
2022-11-28T04:10:38.196Z,6.86
2022-11-28T04:11:38.154Z,6.83
2022-11-28T04:12:38.434Z,6.80
2022-11-28T04:13:38.149Z,6.80
2022-11-28T04:14:38.125Z,6.83
2022-11-28T04:15:38.135Z,6.79
2022-11-28T04:16:38.202Z,6.83
2022-11-28T04:17:38.099Z,6.80
2022-11-28T04:18:38.114Z,6.81
2022-11-28T04:19:38.374Z,6.81
2022-11-28T04:20:38.072Z,6.81
2022-11-28T04:21:38.054Z,6.80
2022-11-28T04:22:38.082Z,6.81
2022-11-28T04:23:38.022Z,6.83
2022-11-28T04:24:38.029Z,6.84
2022-11-28T04:25:38.024Z,6.84
2022-11-28T04:26:38.299Z,6.87
2022-11-28T04:27:37.987Z,6.89
2022-11-28T04:28:38.022Z,6.87
2022-11-28T04:29:37.960Z,6.87
2022-11-28T04:30:37.958Z,6.87
2022-11-28T04:31:38.021Z,6.86
2022-11-28T04:32:37.940Z,6.87
2022-11-28T04:33:38.202Z,6.86
2022-11-28T04:34:37.962Z,6.84
2022-11-28T04:35:37.903Z,6.84
2022-11-28T04:36:37.897Z,6.83
2022-11-28T04:37:37.893Z,6.81
2022-11-28T04:38:37.883Z,6.83
2022-11-28T04:39:37.898Z,6.81
2022-11-28T04:40:37.904Z,6.81
2022-11-28T04:41:37.831Z,6.79
2022-11-28T04:42:37.830Z,6.80
2022-11-28T04:43:37.815Z,6.80
2022-11-28T04:44:37.818Z,6.79
2022-11-28T04:45:38.155Z,6.79
2022-11-28T04:46:37.818Z,6.79
2022-11-28T04:47:37.769Z,6.77
2022-11-28T04:48:37.776Z,6.79
2022-11-28T04:49:37.794Z,6.77
2022-11-28T04:50:37.764Z,6.73
2022-11-28T04:51:37.739Z,6.76
2022-11-28T04:52:37.754Z,6.73
2022-11-28T04:53:37.725Z,6.76
2022-11-28T04:54:37.712Z,6.76
2022-11-28T04:55:37.699Z,6.76
2022-11-28T04:56:37.716Z,6.72
2022-11-28T04:57:37.675Z,6.73
2022-11-28T04:58:37.701Z,6.72
2022-11-28T04:59:37.651Z,6.72
2022-11-28T05:00:37.712Z,6.71
2022-11-28T05:01:37.640Z,6.71
2022-11-28T05:02:37.688Z,6.69
2022-11-28T05:03:42.429Z,6.71
2022-11-28T05:04:37.656Z,6.71
2022-11-28T05:05:37.605Z,6.72
2022-11-28T05:06:37.593Z,6.72
2022-11-28T05:07:37.614Z,6.72
2022-11-28T05:08:37.566Z,6.71
2022-11-28T05:09:37.538Z,6.71
2022-11-28T05:10:37.886Z,6.72
2022-11-28T05:11:37.529Z,6.69
2022-11-28T05:12:37.516Z,6.71
2022-11-28T05:13:37.513Z,6.66
2022-11-28T05:14:37.518Z,6.68
2022-11-28T05:15:37.500Z,6.66
2022-11-28T05:16:37.579Z,6.68
2022-11-28T05:17:41.904Z,6.68
2022-11-28T05:18:37.469Z,6.69
2022-11-28T05:19:37.439Z,6.68
2022-11-28T05:20:37.463Z,6.68
2022-11-28T05:21:37.420Z,6.69
2022-11-28T05:22:37.481Z,6.68
2022-11-28T05:23:37.413Z,6.68
2022-11-28T05:24:37.683Z,6.68
2022-11-28T05:25:37.410Z,6.68
2022-11-28T05:26:37.395Z,6.68
2022-11-28T05:27:37.379Z,6.66
2022-11-28T05:28:37.410Z,6.66
2022-11-28T05:29:37.335Z,6.65
2022-11-28T05:30:37.355Z,6.65
2022-11-28T05:31:37.703Z,6.66
2022-11-28T05:32:37.320Z,6.66
2022-11-28T05:33:37.299Z,6.68
2022-11-28T05:34:37.317Z,6.66
2022-11-28T05:35:37.287Z,6.63
2022-11-28T05:36:37.291Z,6.66
2022-11-28T05:37:37.255Z,6.65
2022-11-28T05:38:37.559Z,6.63
2022-11-28T05:39:37.236Z,6.65
2022-11-28T05:40:37.273Z,6.65
2022-11-28T05:41:37.220Z,6.65
2022-11-28T05:42:37.202Z,6.65
2022-11-28T05:43:37.195Z,6.65
2022-11-28T05:44:37.185Z,6.65
2022-11-28T05:45:37.503Z,6.63
2022-11-28T05:46:37.217Z,6.63
2022-11-28T05:47:37.150Z,6.63
2022-11-28T05:48:37.147Z,6.62
2022-11-28T05:49:37.128Z,6.62
2022-11-28T05:50:39.984Z,6.62
2022-11-28T05:51:37.123Z,6.63
2022-11-28T05:52:37.443Z,6.63
2022-11-28T05:53:37.113Z,6.61
2022-11-28T05:54:37.077Z,6.61
2022-11-28T05:55:37.073Z,6.62
2022-11-28T05:56:42.234Z,6.61
2022-11-28T05:57:37.071Z,6.62
2022-11-28T05:58:37.062Z,6.62
2022-11-28T05:59:37.333Z,6.62
2022-11-28T06:00:37.039Z,6.63
2022-11-28T06:01:37.010Z,6.61
2022-11-28T06:02:37.119Z,6.62
2022-11-28T06:03:36.989Z,6.61
2022-11-28T06:04:37.057Z,6.59
2022-11-28T06:05:44.244Z,6.61
2022-11-28T06:06:36.959Z,6.61
2022-11-28T06:07:37.015Z,6.61
2022-11-28T06:08:36.936Z,6.61
2022-11-28T06:09:36.925Z,6.59
2022-11-28T06:10:36.951Z,6.61
2022-11-28T06:11:36.914Z,6.61
2022-11-28T06:12:37.180Z,6.59
2022-11-28T06:13:36.889Z,6.59
2022-11-28T06:14:36.876Z,6.59
2022-11-28T06:15:38.441Z,6.61
2022-11-28T06:16:36.928Z,6.59
2022-11-28T06:17:36.849Z,6.59
2022-11-28T06:18:36.833Z,6.62
2022-11-28T06:19:37.112Z,6.61
2022-11-28T06:20:36.812Z,6.61
2022-11-28T06:21:36.801Z,6.62
2022-11-28T06:22:36.836Z,6.61
2022-11-28T06:23:36.811Z,6.62
2022-11-28T06:24:36.770Z,6.62
2022-11-28T06:25:36.779Z,6.62
2022-11-28T06:26:37.067Z,6.63
2022-11-28T06:27:36.760Z,6.62
2022-11-28T06:28:36.806Z,6.63
2022-11-28T06:29:36.737Z,6.62
2022-11-28T06:30:36.733Z,6.65
2022-11-28T06:31:36.746Z,6.63
2022-11-28T06:32:36.709Z,6.63
2022-11-28T06:33:36.692Z,6.62
2022-11-28T06:34:36.696Z,6.61
2022-11-28T06:35:36.666Z,6.59
2022-11-28T06:36:36.643Z,6.62
2022-11-28T06:37:36.645Z,6.62
2022-11-28T06:38:36.920Z,6.63
2022-11-28T06:39:36.624Z,6.63
2022-11-28T06:40:36.636Z,6.62
2022-11-28T06:41:36.588Z,6.61
2022-11-28T06:42:36.597Z,6.59
2022-11-28T06:43:36.576Z,6.59
2022-11-28T06:44:36.561Z,6.59
2022-11-28T06:45:36.643Z,6.59
2022-11-28T06:46:36.580Z,6.61
2022-11-28T06:47:36.570Z,6.58
2022-11-28T06:48:36.520Z,6.59
2022-11-28T06:49:36.517Z,6.58
2022-11-28T06:50:36.782Z,6.58
2022-11-28T06:51:36.508Z,6.58
2022-11-28T06:52:36.520Z,6.58
2022-11-28T06:53:36.469Z,6.56
2022-11-28T06:54:36.462Z,6.56
2022-11-28T06:55:36.451Z,6.56
2022-11-28T06:56:36.501Z,6.58
2022-11-28T06:57:36.730Z,6.56
2022-11-28T06:58:36.454Z,6.56
2022-11-28T06:59:36.424Z,6.54
2022-11-28T07:00:36.392Z,6.56
2022-11-28T07:01:36.417Z,6.58
2022-11-28T07:02:36.432Z,6.56
2022-11-28T07:03:36.368Z,6.58
2022-11-28T07:04:36.676Z,6.54
2022-11-28T07:05:36.355Z,6.54
2022-11-28T07:06:36.333Z,6.56
2022-11-28T07:07:45.814Z,6.51
2022-11-28T07:08:36.324Z,6.53
2022-11-28T07:09:36.322Z,6.53
2022-11-28T07:10:36.336Z,6.53
2022-11-28T07:11:36.291Z,6.53
2022-11-28T07:12:36.284Z,6.53
2022-11-28T07:13:36.279Z,6.50
2022-11-28T07:14:36.246Z,6.51
2022-11-28T07:15:36.264Z,6.51
2022-11-28T07:16:36.317Z,6.48
2022-11-28T07:17:36.560Z,6.50
2022-11-28T07:18:36.213Z,6.50
2022-11-28T07:19:36.198Z,6.50
2022-11-28T07:20:36.194Z,6.50
2022-11-28T07:21:36.178Z,6.50
2022-11-28T07:22:36.215Z,6.48
2022-11-28T07:23:36.181Z,6.48
2022-11-28T07:24:36.438Z,6.47
2022-11-28T07:25:36.154Z,6.48
2022-11-28T07:26:36.127Z,6.48
2022-11-28T07:27:36.119Z,6.47
2022-11-28T07:28:36.159Z,6.48
2022-11-28T07:29:36.101Z,6.48
2022-11-28T07:30:36.113Z,6.48
2022-11-28T07:31:36.388Z,6.47
2022-11-28T07:32:36.060Z,6.50
2022-11-28T07:33:36.068Z,6.50
2022-11-28T07:34:36.078Z,6.46
2022-11-28T07:35:36.035Z,6.47
2022-11-28T07:36:36.016Z,6.48
2022-11-28T07:37:36.010Z,6.50
2022-11-28T07:38:36.301Z,6.48
2022-11-28T07:39:35.988Z,6.50
2022-11-28T07:40:36.026Z,6.51
2022-11-28T07:41:35.974Z,6.50
2022-11-28T07:42:35.976Z,6.50
2022-11-28T07:43:35.949Z,6.48
2022-11-28T07:44:35.962Z,6.48
2022-11-28T07:45:58.954Z,6.48
2022-11-28T07:46:36.052Z,6.50
2022-11-28T07:47:35.920Z,6.51
2022-11-28T07:48:35.908Z,6.51
2022-11-28T07:49:35.894Z,6.50
2022-11-28T07:50:35.881Z,6.50
2022-11-28T07:51:35.891Z,6.50
2022-11-28T07:52:37.216Z,6.51
2022-11-28T07:53:35.868Z,6.51
2022-11-28T07:54:35.835Z,6.51
2022-11-28T07:55:35.854Z,6.51
2022-11-28T07:57:04.534Z,6.53
2022-11-28T07:57:35.820Z,6.53
2022-11-28T07:58:35.840Z,6.51
2022-11-28T07:59:36.092Z,6.53
2022-11-28T08:00:35.779Z,6.51
2022-11-28T08:01:35.836Z,6.51
2022-11-28T08:02:35.776Z,6.50
2022-11-28T08:03:35.758Z,6.51
2022-11-28T08:04:35.846Z,6.51
2022-11-28T08:05:35.752Z,6.53
2022-11-28T08:06:36.012Z,6.54
2022-11-28T08:07:35.792Z,6.54
2022-11-28T08:08:35.789Z,6.53
2022-11-28T08:09:35.684Z,6.58
2022-11-28T08:10:35.711Z,6.56
2022-11-28T08:11:35.695Z,6.58
2022-11-28T08:12:35.686Z,6.59
2022-11-28T08:13:35.960Z,6.59
2022-11-28T08:14:35.674Z,6.61
2022-11-28T08:15:35.668Z,6.62
2022-11-28T08:16:35.700Z,6.65
2022-11-28T08:17:35.617Z,6.66
2022-11-28T08:18:35.593Z,6.66
2022-11-28T08:19:35.684Z,6.66
2022-11-28T08:20:35.882Z,6.66
2022-11-28T08:21:35.591Z,6.68
2022-11-28T08:22:35.596Z,6.68
2022-11-28T08:23:35.545Z,6.69
2022-11-28T08:24:35.559Z,6.71
2022-11-28T08:25:35.515Z,6.72
2022-11-28T08:26:35.502Z,6.73
2022-11-28T08:27:35.825Z,6.73
2022-11-28T08:28:35.517Z,6.73
2022-11-28T08:29:35.489Z,6.73
2022-11-28T08:30:35.512Z,6.73
2022-11-28T08:31:35.497Z,6.73
2022-11-28T08:32:35.497Z,6.76
2022-11-28T08:33:35.458Z,6.77
2022-11-28T08:34:35.757Z,6.77
2022-11-28T08:35:35.428Z,6.79
2022-11-28T08:36:35.405Z,6.80
2022-11-28T08:37:35.423Z,6.81
2022-11-28T08:38:35.400Z,6.83
2022-11-28T08:39:35.390Z,6.84
2022-11-28T08:40:35.425Z,6.87
2022-11-28T08:41:35.635Z,6.86
2022-11-28T08:42:35.351Z,6.84
2022-11-28T08:43:35.345Z,6.86
2022-11-28T08:44:35.326Z,6.90
2022-11-28T08:45:35.417Z,6.90
2022-11-28T08:46:35.375Z,6.91
2022-11-28T08:47:35.292Z,6.94
2022-11-28T08:48:35.567Z,6.94
2022-11-28T08:49:35.266Z,6.90
2022-11-28T08:50:35.261Z,6.91
2022-11-28T08:51:35.270Z,6.91
2022-11-28T08:52:35.260Z,6.91
2022-11-28T08:53:35.244Z,6.91
2022-11-28T08:54:35.228Z,6.94
2022-11-28T08:55:40.486Z,6.94
2022-11-28T08:56:35.229Z,6.91
2022-11-28T08:57:35.176Z,6.94
2022-11-28T08:58:35.224Z,6.91
2022-11-28T08:59:35.191Z,6.95
2022-11-28T09:00:35.160Z,6.95
2022-11-28T09:01:35.271Z,6.98
2022-11-28T09:02:35.449Z,6.97
2022-11-28T09:03:35.185Z,6.99
2022-11-28T09:04:35.203Z,6.98
2022-11-28T09:05:35.181Z,7.02
2022-11-28T09:06:35.092Z,6.99
2022-11-28T09:07:35.146Z,7.01
2022-11-28T09:08:35.091Z,6.99
2022-11-28T09:09:35.349Z,7.02
2022-11-28T09:10:35.076Z,7.04
2022-11-28T09:11:35.089Z,7.04
2022-11-28T09:12:35.046Z,7.07
2022-11-28T09:13:35.044Z,7.05
2022-11-28T09:14:35.029Z,7.07
2022-11-28T09:15:35.040Z,7.07
2022-11-28T09:16:35.308Z,7.07
2022-11-28T09:17:35.030Z,7.09
2022-11-28T09:18:35.023Z,7.09
2022-11-28T09:19:34.971Z,7.08
2022-11-28T09:20:34.961Z,7.12
2022-11-28T09:21:34.969Z,7.12
2022-11-28T09:22:34.978Z,7.12
2022-11-28T09:23:35.253Z,7.12
2022-11-28T09:24:34.904Z,7.13
2022-11-28T09:25:34.899Z,7.13
2022-11-28T09:26:34.954Z,7.13
2022-11-28T09:27:34.917Z,7.13
2022-11-28T09:28:34.914Z,7.13
2022-11-28T09:29:34.905Z,7.15
2022-11-28T09:30:34.987Z,7.15
2022-11-28T09:31:34.932Z,7.15
2022-11-28T09:32:34.824Z,7.13
2022-11-28T09:33:34.840Z,7.15
2022-11-28T09:34:35.174Z,7.16
2022-11-28T09:35:34.821Z,7.16
2022-11-28T09:36:34.782Z,7.16
2022-11-28T09:37:34.769Z,7.16
2022-11-28T09:38:34.798Z,7.16
2022-11-28T09:39:44.270Z,7.17
2022-11-28T09:40:34.808Z,7.19
2022-11-28T09:41:34.850Z,7.17
2022-11-28T09:42:34.761Z,7.19
2022-11-28T09:43:34.735Z,7.19
2022-11-28T09:44:34.695Z,7.19
2022-11-28T09:45:34.755Z,7.20
2022-11-28T09:46:35.045Z,7.22
2022-11-28T09:47:34.735Z,7.23
2022-11-28T09:48:34.695Z,7.23
2022-11-28T09:49:40.373Z,7.23
2022-11-28T09:50:34.673Z,7.24
2022-11-28T09:51:34.669Z,7.26
2022-11-28T09:52:34.762Z,7.24
2022-11-28T09:53:34.672Z,7.27
2022-11-28T09:54:34.623Z,7.32
2022-11-28T09:55:34.646Z,7.32
2022-11-28T09:56:34.574Z,7.34
2022-11-28T09:57:34.588Z,7.35
2022-11-28T09:58:34.638Z,7.37
2022-11-28T09:59:34.836Z,7.40
2022-11-28T10:00:34.568Z,7.42
2022-11-28T10:01:34.527Z,7.44
2022-11-28T10:02:34.588Z,7.49
2022-11-28T10:03:34.544Z,7.52
2022-11-28T10:04:34.636Z,7.55
2022-11-28T10:05:34.501Z,7.55
2022-11-28T10:06:34.787Z,7.58
2022-11-28T10:07:34.528Z,7.56
2022-11-28T10:08:34.537Z,7.59
2022-11-28T10:09:34.446Z,7.59
2022-11-28T10:10:34.483Z,7.60
2022-11-28T10:11:34.451Z,7.60
2022-11-28T10:12:34.436Z,7.66
2022-11-28T10:13:59.883Z,7.62
2022-11-28T10:14:34.440Z,7.63
2022-11-28T10:15:34.394Z,7.66
2022-11-28T10:16:34.541Z,7.67
2022-11-28T10:17:34.365Z,7.66
2022-11-28T10:18:34.374Z,7.67
2022-11-28T10:20:34.351Z,7.69
2022-11-28T10:21:34.328Z,7.69
2022-11-28T10:22:34.354Z,7.69
2022-11-28T10:23:34.352Z,7.69
2022-11-28T10:24:34.303Z,7.71
2022-11-28T10:25:34.306Z,7.72
2022-11-28T10:26:34.279Z,7.72
2022-11-28T10:27:34.293Z,7.72
2022-11-28T10:28:34.312Z,7.75
2022-11-28T10:29:34.235Z,7.74
2022-11-28T10:30:34.402Z,7.75
2022-11-28T10:31:34.318Z,7.78
2022-11-28T10:32:34.228Z,7.75
2022-11-28T10:33:34.222Z,7.77
2022-11-28T10:34:34.253Z,7.78
2022-11-28T10:35:34.232Z,7.77
2022-11-28T10:36:34.182Z,7.78
2022-11-28T10:37:34.190Z,7.79
2022-11-28T10:38:34.227Z,7.79
2022-11-28T10:39:34.172Z,7.79
2022-11-28T10:40:34.228Z,7.81
2022-11-28T10:41:34.116Z,7.82
2022-11-28T10:42:34.166Z,7.85
2022-11-28T10:43:34.110Z,7.84
2022-11-28T10:44:34.143Z,7.82
2022-11-28T10:45:34.086Z,7.84
2022-11-28T10:46:34.197Z,7.87
2022-11-28T10:47:34.071Z,7.89
2022-11-28T10:48:41.580Z,7.90
2022-11-28T10:49:34.072Z,7.89
2022-11-28T10:50:34.369Z,7.90
2022-11-28T10:51:34.029Z,7.93
2022-11-28T10:52:34.081Z,7.93
2022-11-28T10:53:34.038Z,7.94
2022-11-28T10:54:33.988Z,7.94
2022-11-28T10:55:34.005Z,7.94
2022-11-28T10:56:34.059Z,7.97
2022-11-28T10:57:34.285Z,7.97
2022-11-28T10:58:34.036Z,7.99
2022-11-28T10:59:33.956Z,7.99
2022-11-28T11:00:33.919Z,8.00
2022-11-28T11:01:33.965Z,8.02
2022-11-28T11:02:33.953Z,8.03
2022-11-28T11:03:33.895Z,8.02
2022-11-28T11:04:34.247Z,8.03
2022-11-28T11:05:33.862Z,8.03
2022-11-28T11:06:41.905Z,8.04
2022-11-28T11:07:33.944Z,8.07
2022-11-28T11:08:33.885Z,8.08
2022-11-28T11:09:33.856Z,8.04
2022-11-28T11:10:33.849Z,8.04
2022-11-28T11:11:34.103Z,8.03
2022-11-28T11:12:33.856Z,8.03
2022-11-28T11:13:33.794Z,8.04
2022-11-28T11:14:33.842Z,8.04
2022-11-28T11:15:33.878Z,8.07
2022-11-28T11:16:33.859Z,8.10
2022-11-28T11:17:36.184Z,8.10
2022-11-28T11:18:33.790Z,8.11
2022-11-28T11:19:33.790Z,8.10
2022-11-28T11:20:33.728Z,8.12
2022-11-28T11:21:33.763Z,8.12
2022-11-28T11:22:33.794Z,8.11
2022-11-28T11:23:38.047Z,8.12
2022-11-28T11:24:33.699Z,8.10
2022-11-28T11:25:33.719Z,8.12
2022-11-28T11:26:33.769Z,8.14
2022-11-28T11:27:33.631Z,8.12
2022-11-28T11:28:33.825Z,8.12
2022-11-28T11:29:33.669Z,8.15
2022-11-28T11:30:33.695Z,8.14
2022-11-28T11:31:33.668Z,8.14
2022-11-28T11:32:33.629Z,8.15
2022-11-28T11:33:33.642Z,8.15
2022-11-28T11:34:33.651Z,8.15
2022-11-28T11:35:33.593Z,8.17
2022-11-28T11:36:33.936Z,8.11
2022-11-28T11:37:33.564Z,8.10
2022-11-28T11:38:37.808Z,8.10
2022-11-28T11:39:33.601Z,8.11
2022-11-28T11:40:33.615Z,8.04
2022-11-28T11:41:33.519Z,8.08
2022-11-28T11:42:33.556Z,8.10
2022-11-28T11:43:33.646Z,8.04
2022-11-28T11:44:33.581Z,8.07
2022-11-28T11:45:33.529Z,8.08
2022-11-28T11:46:33.595Z,8.08
2022-11-28T11:47:33.524Z,8.04
2022-11-28T11:48:33.805Z,8.03
2022-11-28T11:49:33.449Z,8.03
2022-11-28T11:50:33.454Z,8.04
2022-11-28T11:51:38.097Z,8.07
2022-11-28T11:52:33.501Z,8.04
2022-11-28T11:53:33.405Z,8.07
2022-11-28T11:54:33.398Z,8.02
2022-11-28T11:55:33.421Z,8.03
2022-11-28T11:56:33.434Z,8.03
2022-11-28T11:57:34.405Z,8.07
2022-11-28T11:58:33.411Z,8.07
2022-11-28T11:59:33.323Z,8.07
2022-11-28T12:00:33.337Z,8.04
2022-11-28T12:01:33.300Z,8.04
2022-11-28T12:02:33.539Z,8.03
2022-11-28T12:03:33.785Z,8.03
2022-11-28T12:04:52.611Z,8.04
2022-11-28T12:05:46.662Z,8.04
2022-11-28T12:06:33.269Z,8.04
2022-11-28T12:07:33.313Z,8.07
2022-11-28T12:08:33.247Z,8.04
2022-11-28T12:09:33.225Z,8.07
2022-11-28T12:10:33.409Z,8.04
2022-11-28T12:11:33.210Z,8.03
2022-11-28T12:12:33.488Z,8.08
2022-11-28T12:13:33.174Z,8.04
2022-11-28T12:14:33.252Z,8.04
2022-11-28T12:15:33.163Z,8.04
2022-11-28T12:16:33.253Z,8.08
2022-11-28T12:17:48.460Z,8.08
2022-11-28T12:18:34.347Z,8.08
2022-11-28T12:19:33.143Z,8.08
2022-11-28T12:20:33.108Z,8.10
2022-11-28T12:21:33.157Z,8.10
2022-11-28T12:22:33.156Z,8.08
2022-11-28T12:23:33.113Z,8.10
2022-11-28T12:24:33.403Z,8.11
2022-11-28T12:25:33.098Z,8.11
2022-11-28T12:26:33.046Z,8.12
2022-11-28T12:27:33.177Z,8.12
2022-11-28T12:28:33.103Z,8.14
2022-11-28T12:29:33.071Z,8.14
2022-11-28T12:30:33.012Z,8.12
2022-11-28T12:31:33.113Z,8.14
2022-11-28T12:32:33.066Z,8.14
2022-11-28T12:33:33.085Z,8.14
2022-11-28T12:34:33.068Z,8.14
2022-11-28T12:35:32.973Z,8.15
2022-11-28T12:36:33.276Z,8.18
2022-11-28T12:37:54.764Z,8.20
2022-11-28T12:38:32.942Z,8.18
2022-11-28T12:39:32.957Z,8.18
2022-11-28T12:40:33.004Z,8.18
2022-11-28T12:41:33.048Z,8.18
2022-11-28T12:42:32.947Z,8.18
2022-11-28T12:43:32.845Z,8.20
2022-11-28T12:44:32.937Z,8.20
2022-11-28T12:45:32.899Z,8.17
2022-11-28T12:46:33.049Z,8.17
2022-11-28T12:47:32.843Z,8.17
2022-11-28T12:48:32.825Z,8.17
2022-11-28T12:49:32.811Z,8.17
2022-11-28T12:50:32.831Z,8.18
2022-11-28T12:51:32.778Z,8.17
2022-11-28T12:52:32.887Z,8.15
2022-11-28T12:53:32.798Z,8.15
2022-11-28T12:54:32.905Z,8.17
2022-11-28T12:55:32.729Z,8.14
2022-11-28T12:56:32.883Z,8.15
2022-11-28T12:57:32.796Z,8.12
2022-11-28T12:58:32.884Z,8.15
2022-11-28T12:59:32.725Z,8.17
2022-11-28T13:00:32.782Z,8.14
2022-11-28T13:01:32.784Z,8.17
2022-11-28T13:02:32.925Z,8.18
2022-11-28T13:03:32.823Z,8.17
2022-11-28T13:04:32.807Z,8.17
2022-11-28T13:05:32.754Z,8.17
2022-11-28T13:06:32.669Z,8.15
2022-11-28T13:07:32.726Z,8.14
2022-11-28T13:08:32.719Z,8.12
2022-11-28T13:09:32.597Z,8.18
2022-11-28T13:10:32.725Z,8.15
2022-11-28T13:11:32.630Z,8.14
2022-11-28T13:12:32.586Z,8.12
2022-11-28T13:13:32.884Z,8.11
2022-11-28T13:14:32.558Z,8.10
2022-11-28T13:15:32.613Z,8.10
2022-11-28T13:16:32.747Z,8.10
2022-11-28T13:17:32.529Z,8.08
2022-11-28T13:18:32.491Z,8.04
2022-11-28T13:19:32.598Z,8.04